sensor_id;sensor_type;location;lat;lon;timestamp;P1;durP1;ratioP1;P2;durP2;ratioP2
16403;SDS011;8311;50.158;8.642;2023-03-05T00:01:41;3.22;;;1.70;;
16403;SDS011;8311;50.158;8.642;2023-03-05T00:04:35;3.38;;;1.90;;
16403;SDS011;8311;50.158;8.642;2023-03-05T00:07:29;2.20;;;1.60;;
16403;SDS011;8311;50.158;8.642;2023-03-05T00:10:23;2.00;;;1.58;;
16403;SDS011;8311;50.158;8.642;2023-03-05T00:13:16;3.15;;;2.00;;
16403;SDS011;8311;50.158;8.642;2023-03-05T00:16:10;3.60;;;1.77;;
16403;SDS011;8311;50.158;8.642;2023-03-05T00:19:05;2.63;;;1.92;;
16403;SDS011;8311;50.158;8.642;2023-03-05T00:21:58;2.00;;;1.70;;
16403;SDS011;8311;50.158;8.642;2023-03-05T00:24:53;2.17;;;1.60;;
16403;SDS011;8311;50.158;8.642;2023-03-05T00:27:46;1.92;;;1.50;;
16403;SDS011;8311;50.158;8.642;2023-03-05T00:30:39;2.25;;;1.50;;
16403;SDS011;8311;50.158;8.642;2023-03-05T00:33:33;2.15;;;1.55;;
16403;SDS011;8311;50.158;8.642;2023-03-05T00:36:26;2.20;;;1.50;;
16403;SDS011;8311;50.158;8.642;2023-03-05T00:39:20;2.42;;;1.58;;
16403;SDS011;8311;50.158;8.642;2023-03-05T00:42:15;2.63;;;1.50;;
16403;SDS011;8311;50.158;8.642;2023-03-05T00:45:09;2.95;;;1.48;;
16403;SDS011;8311;50.158;8.642;2023-03-05T00:48:03;2.65;;;1.60;;
16403;SDS011;8311;50.158;8.642;2023-03-05T00:50:57;3.30;;;1.92;;
16403;SDS011;8311;50.158;8.642;2023-03-05T00:53:51;3.28;;;1.75;;
16403;SDS011;8311;50.158;8.642;2023-03-05T00:56:44;3.80;;;1.70;;
16403;SDS011;8311;50.158;8.642;2023-03-05T00:59:39;1.90;;;1.42;;
16403;SDS011;8311;50.158;8.642;2023-03-05T01:02:33;2.75;;;1.52;;
16403;SDS011;8311;50.158;8.642;2023-03-05T01:05:26;3.55;;;1.40;;
16403;SDS011;8311;50.158;8.642;2023-03-05T01:08:19;2.63;;;1.58;;
16403;SDS011;8311;50.158;8.642;2023-03-05T01:11:13;3.20;;;1.60;;
16403;SDS011;8311;50.158;8.642;2023-03-05T01:14:06;2.17;;;1.48;;
16403;SDS011;8311;50.158;8.642;2023-03-05T01:17:00;2.13;;;1.20;;
16403;SDS011;8311;50.158;8.642;2023-03-05T01:19:54;2.55;;;1.60;;
16403;SDS011;8311;50.158;8.642;2023-03-05T01:22:51;2.92;;;1.60;;
16403;SDS011;8311;50.158;8.642;2023-03-05T01:25:44;2.28;;;1.58;;
16403;SDS011;8311;50.158;8.642;2023-03-05T01:28:37;2.35;;;1.50;;
16403;SDS011;8311;50.158;8.642;2023-03-05T01:31:31;2.28;;;1.40;;
16403;SDS011;8311;50.158;8.642;2023-03-05T01:34:26;2.58;;;1.30;;
16403;SDS011;8311;50.158;8.642;2023-03-05T01:37:19;1.92;;;1.30;;
16403;SDS011;8311;50.158;8.642;2023-03-05T01:40:13;2.55;;;1.40;;
16403;SDS011;8311;50.158;8.642;2023-03-05T01:43:18;2.08;;;1.40;;
16403;SDS011;8311;50.158;8.642;2023-03-05T01:46:21;2.13;;;1.48;;
16403;SDS011;8311;50.158;8.642;2023-03-05T01:49:18;2.70;;;1.50;;
16403;SDS011;8311;50.158;8.642;2023-03-05T01:52:15;1.88;;;1.45;;
16403;SDS011;8311;50.158;8.642;2023-03-05T01:55:12;2.33;;;1.52;;
16403;SDS011;8311;50.158;8.642;2023-03-05T01:58:09;2.05;;;1.35;;
16403;SDS011;8311;50.158;8.642;2023-03-05T02:01:04;1.70;;;1.50;;
16403;SDS011;8311;50.158;8.642;2023-03-05T02:03:58;2.40;;;1.48;;
16403;SDS011;8311;50.158;8.642;2023-03-05T02:06:54;2.10;;;1.45;;
16403;SDS011;8311;50.158;8.642;2023-03-05T02:09:50;2.13;;;1.50;;
16403;SDS011;8311;50.158;8.642;2023-03-05T02:12:44;2.15;;;1.30;;
16403;SDS011;8311;50.158;8.642;2023-03-05T02:15:39;1.40;;;1.10;;
16403;SDS011;8311;50.158;8.642;2023-03-05T02:18:34;2.85;;;1.50;;
16403;SDS011;8311;50.158;8.642;2023-03-05T02:21:29;2.80;;;1.50;;
16403;SDS011;8311;50.158;8.642;2023-03-05T02:24:32;1.63;;;1.25;;
16403;SDS011;8311;50.158;8.642;2023-03-05T02:27:28;1.88;;;1.50;;
16403;SDS011;8311;50.158;8.642;2023-03-05T02:30:25;1.55;;;1.20;;
16403;SDS011;8311;50.158;8.642;2023-03-05T02:33:19;2.92;;;1.60;;
16403;SDS011;8311;50.158;8.642;2023-03-05T02:36:14;2.03;;;1.23;;
16403;SDS011;8311;50.158;8.642;2023-03-05T02:39:09;1.77;;;1.30;;
16403;SDS011;8311;50.158;8.642;2023-03-05T02:42:03;1.92;;;1.30;;
16403;SDS011;8311;50.158;8.642;2023-03-05T02:44:56;2.17;;;1.25;;
16403;SDS011;8311;50.158;8.642;2023-03-05T02:47:49;2.25;;;1.42;;
16403;SDS011;8311;50.158;8.642;2023-03-05T02:50:42;2.35;;;1.30;;
16403;SDS011;8311;50.158;8.642;2023-03-05T02:53:37;1.40;;;1.08;;
16403;SDS011;8311;50.158;8.642;2023-03-05T02:56:32;3.28;;;1.50;;
16403;SDS011;8311;50.158;8.642;2023-03-05T02:59:25;1.65;;;1.27;;
16403;SDS011;8311;50.158;8.642;2023-03-05T03:02:19;2.42;;;1.55;;
16403;SDS011;8311;50.158;8.642;2023-03-05T03:05:12;1.60;;;1.17;;
16403;SDS011;8311;50.158;8.642;2023-03-05T03:08:05;2.40;;;1.55;;
16403;SDS011;8311;50.158;8.642;2023-03-05T03:11:03;1.83;;;1.17;;
16403;SDS011;8311;50.158;8.642;2023-03-05T03:13:59;1.27;;;1.02;;
16403;SDS011;8311;50.158;8.642;2023-03-05T03:16:53;1.90;;;1.23;;
16403;SDS011;8311;50.158;8.642;2023-03-05T03:19:46;1.90;;;1.40;;
16403;SDS011;8311;50.158;8.642;2023-03-05T03:22:39;1.40;;;1.08;;
16403;SDS011;8311;50.158;8.642;2023-03-05T03:25:33;1.13;;;1.00;;
16403;SDS011;8311;50.158;8.642;2023-03-05T03:28:26;2.00;;;1.27;;
16403;SDS011;8311;50.158;8.642;2023-03-05T03:31:20;2.33;;;1.42;;
16403;SDS011;8311;50.158;8.642;2023-03-05T03:34:18;2.53;;;1.35;;
16403;SDS011;8311;50.158;8.642;2023-03-05T03:37:12;1.83;;;1.23;;
16403;SDS011;8311;50.158;8.642;2023-03-05T03:40:06;1.65;;;1.08;;
16403;SDS011;8311;50.158;8.642;2023-03-05T03:43:01;2.05;;;1.27;;
16403;SDS011;8311;50.158;8.642;2023-03-05T03:45:54;1.63;;;1.23;;
16403;SDS011;8311;50.158;8.642;2023-03-05T03:48:50;1.98;;;1.10;;
16403;SDS011;8311;50.158;8.642;2023-03-05T03:51:43;2.40;;;1.23;;
16403;SDS011;8311;50.158;8.642;2023-03-05T03:54:37;1.23;;;1.13;;
16403;SDS011;8311;50.158;8.642;2023-03-05T03:57:32;1.50;;;1.13;;
16403;SDS011;8311;50.158;8.642;2023-03-05T04:00:25;2.42;;;1.27;;
16403;SDS011;8311;50.158;8.642;2023-03-05T04:03:18;2.45;;;1.10;;
16403;SDS011;8311;50.158;8.642;2023-03-05T04:06:13;1.30;;;1.08;;
16403;SDS011;8311;50.158;8.642;2023-03-05T04:09:06;1.98;;;1.10;;
16403;SDS011;8311;50.158;8.642;2023-03-05T04:12:00;2.25;;;1.33;;
16403;SDS011;8311;50.158;8.642;2023-03-05T04:14:53;2.10;;;1.35;;
16403;SDS011;8311;50.158;8.642;2023-03-05T04:17:46;1.23;;;0.98;;
16403;SDS011;8311;50.158;8.642;2023-03-05T04:20:39;1.73;;;1.10;;
16403;SDS011;8311;50.158;8.642;2023-03-05T04:23:34;2.53;;;1.10;;
16403;SDS011;8311;50.158;8.642;2023-03-05T04:26:27;1.65;;;1.17;;
16403;SDS011;8311;50.158;8.642;2023-03-05T04:29:20;1.60;;;1.10;;
16403;SDS011;8311;50.158;8.642;2023-03-05T04:32:13;1.20;;;1.10;;
16403;SDS011;8311;50.158;8.642;2023-03-05T04:35:13;1.50;;;1.23;;
16403;SDS011;8311;50.158;8.642;2023-03-05T04:38:06;1.77;;;1.20;;
16403;SDS011;8311;50.158;8.642;2023-03-05T04:41:01;1.60;;;0.98;;
16403;SDS011;8311;50.158;8.642;2023-03-05T04:43:57;2.53;;;1.17;;
16403;SDS011;8311;50.158;8.642;2023-03-05T04:46:51;1.67;;;1.20;;
16403;SDS011;8311;50.158;8.642;2023-03-05T04:49:44;1.73;;;1.15;;
16403;SDS011;8311;50.158;8.642;2023-03-05T04:52:38;1.42;;;0.88;;
16403;SDS011;8311;50.158;8.642;2023-03-05T04:55:32;1.30;;;0.88;;
16403;SDS011;8311;50.158;8.642;2023-03-05T04:58:26;2.33;;;1.10;;
16403;SDS011;8311;50.158;8.642;2023-03-05T05:01:20;1.45;;;1.20;;
16403;SDS011;8311;50.158;8.642;2023-03-05T05:04:14;1.20;;;1.10;;
16403;SDS011;8311;50.158;8.642;2023-03-05T05:07:07;2.13;;;1.15;;
16403;SDS011;8311;50.158;8.642;2023-03-05T05:10:00;1.45;;;1.10;;
16403;SDS011;8311;50.158;8.642;2023-03-05T05:12:53;0.93;;;0.80;;
16403;SDS011;8311;50.158;8.642;2023-03-05T05:15:48;1.95;;;1.30;;
16403;SDS011;8311;50.158;8.642;2023-03-05T05:18:42;1.70;;;1.10;;
16403;SDS011;8311;50.158;8.642;2023-03-05T05:21:35;2.35;;;1.08;;
16403;SDS011;8311;50.158;8.642;2023-03-05T05:24:28;1.30;;;1.02;;
16403;SDS011;8311;50.158;8.642;2023-03-05T05:27:22;1.50;;;1.00;;
16403;SDS011;8311;50.158;8.642;2023-03-05T05:30:15;1.60;;;1.20;;
16403;SDS011;8311;50.158;8.642;2023-03-05T05:33:09;1.25;;;1.00;;
16403;SDS011;8311;50.158;8.642;2023-03-05T05:36:03;2.20;;;1.30;;
16403;SDS011;8311;50.158;8.642;2023-03-05T05:38:58;1.67;;;1.08;;
16403;SDS011;8311;50.158;8.642;2023-03-05T05:41:51;2.28;;;1.20;;
16403;SDS011;8311;50.158;8.642;2023-03-05T05:44:45;1.50;;;1.15;;
16403;SDS011;8311;50.158;8.642;2023-03-05T05:47:39;1.83;;;1.13;;
16403;SDS011;8311;50.158;8.642;2023-03-05T05:50:33;1.90;;;1.30;;
16403;SDS011;8311;50.158;8.642;2023-03-05T05:53:27;1.30;;;1.00;;
16403;SDS011;8311;50.158;8.642;2023-03-05T05:56:20;1.42;;;1.10;;
16403;SDS011;8311;50.158;8.642;2023-03-05T05:59:13;1.20;;;1.05;;
16403;SDS011;8311;50.158;8.642;2023-03-05T06:02:06;0.88;;;0.75;;
16403;SDS011;8311;50.158;8.642;2023-03-05T06:05:01;1.27;;;1.00;;
16403;SDS011;8311;50.158;8.642;2023-03-05T06:07:55;1.27;;;1.00;;
16403;SDS011;8311;50.158;8.642;2023-03-05T06:10:52;1.23;;;1.08;;
16403;SDS011;8311;50.158;8.642;2023-03-05T06:13:46;1.25;;;1.00;;
16403;SDS011;8311;50.158;8.642;2023-03-05T06:16:40;2.88;;;1.20;;
16403;SDS011;8311;50.158;8.642;2023-03-05T06:19:33;1.30;;;0.70;;
16403;SDS011;8311;50.158;8.642;2023-03-05T06:22:26;1.10;;;1.00;;
16403;SDS011;8311;50.158;8.642;2023-03-05T06:25:22;1.33;;;1.10;;
16403;SDS011;8311;50.158;8.642;2023-03-05T06:28:15;1.88;;;1.10;;
16403;SDS011;8311;50.158;8.642;2023-03-05T06:31:10;2.08;;;1.10;;
16403;SDS011;8311;50.158;8.642;2023-03-05T06:34:05;1.60;;;0.85;;
16403;SDS011;8311;50.158;8.642;2023-03-05T06:36:58;0.80;;;0.75;;
16403;SDS011;8311;50.158;8.642;2023-03-05T06:39:51;1.73;;;0.80;;
16403;SDS011;8311;50.158;8.642;2023-03-05T06:42:45;1.10;;;1.00;;
16403;SDS011;8311;50.158;8.642;2023-03-05T06:45:39;1.20;;;0.93;;
16403;SDS011;8311;50.158;8.642;2023-03-05T06:48:33;1.00;;;0.90;;
16403;SDS011;8311;50.158;8.642;2023-03-05T06:51:28;0.90;;;0.75;;
16403;SDS011;8311;50.158;8.642;2023-03-05T06:54:23;0.98;;;0.85;;
16403;SDS011;8311;50.158;8.642;2023-03-05T06:57:16;1.63;;;1.13;;
16403;SDS011;8311;50.158;8.642;2023-03-05T07:00:11;2.17;;;1.00;;
16403;SDS011;8311;50.158;8.642;2023-03-05T07:03:05;1.58;;;1.00;;
16403;SDS011;8311;50.158;8.642;2023-03-05T07:06:00;1.70;;;1.25;;
16403;SDS011;8311;50.158;8.642;2023-03-05T07:08:54;1.25;;;0.88;;
16403;SDS011;8311;50.158;8.642;2023-03-05T07:11:47;1.50;;;1.10;;
16403;SDS011;8311;50.158;8.642;2023-03-05T07:14:40;1.42;;;0.90;;
16403;SDS011;8311;50.158;8.642;2023-03-05T07:17:34;1.05;;;0.80;;
16403;SDS011;8311;50.158;8.642;2023-03-05T07:20:27;1.08;;;0.90;;
16403;SDS011;8311;50.158;8.642;2023-03-05T07:23:20;1.25;;;0.65;;
16403;SDS011;8311;50.158;8.642;2023-03-05T07:26:16;0.90;;;0.68;;
16403;SDS011;8311;50.158;8.642;2023-03-05T07:29:09;1.48;;;1.10;;
16403;SDS011;8311;50.158;8.642;2023-03-05T07:32:03;0.98;;;0.80;;
16403;SDS011;8311;50.158;8.642;2023-03-05T07:34:59;0.95;;;0.90;;
16403;SDS011;8311;50.158;8.642;2023-03-05T07:37:52;1.73;;;1.20;;
16403;SDS011;8311;50.158;8.642;2023-03-05T07:40:46;0.80;;;0.80;;
16403;SDS011;8311;50.158;8.642;2023-03-05T07:43:39;1.13;;;0.80;;
16403;SDS011;8311;50.158;8.642;2023-03-05T07:46:33;1.13;;;0.77;;
16403;SDS011;8311;50.158;8.642;2023-03-05T07:49:27;1.60;;;0.80;;
16403;SDS011;8311;50.158;8.642;2023-03-05T07:52:22;0.98;;;0.73;;
16403;SDS011;8311;50.158;8.642;2023-03-05T07:55:15;0.95;;;0.77;;
16403;SDS011;8311;50.158;8.642;2023-03-05T07:58:09;1.10;;;0.82;;
16403;SDS011;8311;50.158;8.642;2023-03-05T08:01:08;1.30;;;0.80;;
16403;SDS011;8311;50.158;8.642;2023-03-05T08:04:04;1.77;;;1.10;;
16403;SDS011;8311;50.158;8.642;2023-03-05T08:06:58;1.33;;;1.00;;
16403;SDS011;8311;50.158;8.642;2023-03-05T08:09:56;0.55;;;0.55;;
16403;SDS011;8311;50.158;8.642;2023-03-05T08:12:49;0.75;;;0.75;;
16403;SDS011;8311;50.158;8.642;2023-03-05T08:15:43;1.77;;;1.13;;
16403;SDS011;8311;50.158;8.642;2023-03-05T08:18:36;2.13;;;0.85;;
16403;SDS011;8311;50.158;8.642;2023-03-05T08:21:31;1.85;;;0.98;;
16403;SDS011;8311;50.158;8.642;2023-03-05T08:24:25;1.60;;;1.00;;
16403;SDS011;8311;50.158;8.642;2023-03-05T08:27:21;1.92;;;1.08;;
16403;SDS011;8311;50.158;8.642;2023-03-05T08:30:15;2.20;;;0.80;;
16403;SDS011;8311;50.158;8.642;2023-03-05T08:33:12;1.70;;;1.00;;
16403;SDS011;8311;50.158;8.642;2023-03-05T08:36:08;3.67;;;1.05;;
16403;SDS011;8311;50.158;8.642;2023-03-05T08:39:01;1.60;;;0.90;;
16403;SDS011;8311;50.158;8.642;2023-03-05T08:41:57;3.47;;;1.00;;
16403;SDS011;8311;50.158;8.642;2023-03-05T08:44:52;0.75;;;0.70;;
16403;SDS011;8311;50.158;8.642;2023-03-05T08:47:45;2.03;;;0.90;;
16403;SDS011;8311;50.158;8.642;2023-03-05T08:50:38;2.75;;;0.80;;
16403;SDS011;8311;50.158;8.642;2023-03-05T08:53:31;1.88;;;1.05;;
16403;SDS011;8311;50.158;8.642;2023-03-05T08:56:24;2.35;;;1.30;;
16403;SDS011;8311;50.158;8.642;2023-03-05T08:59:18;1.75;;;0.95;;
16403;SDS011;8311;50.158;8.642;2023-03-05T09:02:12;1.63;;;0.82;;
16403;SDS011;8311;50.158;8.642;2023-03-05T09:05:07;1.58;;;0.88;;
16403;SDS011;8311;50.158;8.642;2023-03-05T09:08:00;2.13;;;1.08;;
16403;SDS011;8311;50.158;8.642;2023-03-05T09:10:54;4.28;;;1.10;;
16403;SDS011;8311;50.158;8.642;2023-03-05T09:13:47;1.27;;;0.88;;
16403;SDS011;8311;50.158;8.642;2023-03-05T09:16:40;1.65;;;1.08;;
16403;SDS011;8311;50.158;8.642;2023-03-05T09:19:36;1.95;;;1.10;;
16403;SDS011;8311;50.158;8.642;2023-03-05T09:22:29;3.30;;;1.20;;
16403;SDS011;8311;50.158;8.642;2023-03-05T09:25:23;2.47;;;0.80;;
16403;SDS011;8311;50.158;8.642;2023-03-05T09:28:16;1.70;;;1.02;;
16403;SDS011;8311;50.158;8.642;2023-03-05T09:31:09;2.35;;;1.00;;
16403;SDS011;8311;50.158;8.642;2023-03-05T09:34:02;2.15;;;1.05;;
16403;SDS011;8311;50.158;8.642;2023-03-05T09:37:01;1.95;;;1.10;;
16403;SDS011;8311;50.158;8.642;2023-03-05T09:39:54;2.55;;;1.40;;
16403;SDS011;8311;50.158;8.642;2023-03-05T09:42:59;2.55;;;1.13;;
16403;SDS011;8311;50.158;8.642;2023-03-05T09:45:59;2.35;;;1.25;;
16403;SDS011;8311;50.158;8.642;2023-03-05T09:49:00;2.80;;;1.23;;
16403;SDS011;8311;50.158;8.642;2023-03-05T09:52:06;2.75;;;1.55;;
16403;SDS011;8311;50.158;8.642;2023-03-05T09:55:09;2.30;;;1.20;;
16403;SDS011;8311;50.158;8.642;2023-03-05T09:58:06;1.77;;;1.10;;
16403;SDS011;8311;50.158;8.642;2023-03-05T10:01:04;3.78;;;1.42;;
16403;SDS011;8311;50.158;8.642;2023-03-05T10:04:02;3.00;;;1.65;;
16403;SDS011;8311;50.158;8.642;2023-03-05T10:07:03;3.22;;;1.35;;
16403;SDS011;8311;50.158;8.642;2023-03-05T10:10:04;2.25;;;1.33;;
16403;SDS011;8311;50.158;8.642;2023-03-05T10:13:03;3.88;;;1.52;;
16403;SDS011;8311;50.158;8.642;2023-03-05T10:16:04;3.25;;;1.55;;
16403;SDS011;8311;50.158;8.642;2023-03-05T10:19:16;3.35;;;1.17;;
16403;SDS011;8311;50.158;8.642;2023-03-05T10:22:15;2.50;;;1.20;;
16403;SDS011;8311;50.158;8.642;2023-03-05T10:25:14;3.13;;;1.50;;
16403;SDS011;8311;50.158;8.642;2023-03-05T10:28:11;2.40;;;1.33;;
16403;SDS011;8311;50.158;8.642;2023-03-05T10:31:19;2.83;;;1.67;;
16403;SDS011;8311;50.158;8.642;2023-03-05T10:34:38;2.75;;;1.42;;
16403;SDS011;8311;50.158;8.642;2023-03-05T10:40:57;3.28;;;1.58;;
16403;SDS011;8311;50.158;8.642;2023-03-05T10:43:55;4.85;;;1.83;;
16403;SDS011;8311;50.158;8.642;2023-03-05T10:46:55;2.50;;;1.60;;
16403;SDS011;8311;50.158;8.642;2023-03-05T10:49:50;2.85;;;1.50;;
16403;SDS011;8311;50.158;8.642;2023-03-05T10:52:46;2.70;;;1.35;;
16403;SDS011;8311;50.158;8.642;2023-03-05T10:55:44;3.75;;;1.73;;
16403;SDS011;8311;50.158;8.642;2023-03-05T10:58:38;3.08;;;1.60;;
16403;SDS011;8311;50.158;8.642;2023-03-05T11:01:30;1.98;;;1.35;;
16403;SDS011;8311;50.158;8.642;2023-03-05T11:04:25;2.58;;;1.55;;
16403;SDS011;8311;50.158;8.642;2023-03-05T11:07:30;4.35;;;1.88;;
16403;SDS011;8311;50.158;8.642;2023-03-05T11:10:25;5.38;;;1.90;;
16403;SDS011;8311;50.158;8.642;2023-03-05T11:13:22;1.98;;;1.30;;
16403;SDS011;8311;50.158;8.642;2023-03-05T11:16:18;2.83;;;1.70;;
16403;SDS011;8311;50.158;8.642;2023-03-05T11:19:16;2.33;;;1.55;;
16403;SDS011;8311;50.158;8.642;2023-03-05T11:22:14;4.05;;;1.75;;
16403;SDS011;8311;50.158;8.642;2023-03-05T11:25:13;2.97;;;1.60;;
16403;SDS011;8311;50.158;8.642;2023-03-05T11:28:16;2.80;;;1.60;;
16403;SDS011;8311;50.158;8.642;2023-03-05T11:31:24;2.90;;;1.77;;
16403;SDS011;8311;50.158;8.642;2023-03-05T11:34:25;3.78;;;1.75;;
16403;SDS011;8311;50.158;8.642;2023-03-05T11:37:26;3.67;;;1.70;;
16403;SDS011;8311;50.158;8.642;2023-03-05T11:40:21;3.00;;;1.70;;
16403;SDS011;8311;50.158;8.642;2023-03-05T11:43:17;3.10;;;1.80;;
16403;SDS011;8311;50.158;8.642;2023-03-05T11:46:12;3.92;;;1.73;;
16403;SDS011;8311;50.158;8.642;2023-03-05T11:49:10;3.38;;;2.00;;
16403;SDS011;8311;50.158;8.642;2023-03-05T11:52:07;4.50;;;2.05;;
16403;SDS011;8311;50.158;8.642;2023-03-05T11:55:06;2.65;;;1.50;;
16403;SDS011;8311;50.158;8.642;2023-03-05T11:58:16;3.60;;;1.70;;
16403;SDS011;8311;50.158;8.642;2023-03-05T12:01:18;3.13;;;1.48;;
16403;SDS011;8311;50.158;8.642;2023-03-05T12:04:15;3.95;;;1.73;;
16403;SDS011;8311;50.158;8.642;2023-03-05T12:07:09;5.22;;;1.88;;
16403;SDS011;8311;50.158;8.642;2023-03-05T12:10:13;3.90;;;1.40;;
16403;SDS011;8311;50.158;8.642;2023-03-05T12:13:11;3.55;;;2.08;;
16403;SDS011;8311;50.158;8.642;2023-03-05T12:16:14;3.05;;;1.90;;
16403;SDS011;8311;50.158;8.642;2023-03-05T12:19:23;2.83;;;1.80;;
16403;SDS011;8311;50.158;8.642;2023-03-05T12:22:32;2.85;;;1.48;;
16403;SDS011;8311;50.158;8.642;2023-03-05T12:25:30;2.45;;;1.80;;
16403;SDS011;8311;50.158;8.642;2023-03-05T12:31:46;3.08;;;1.50;;
16403;SDS011;8311;50.158;8.642;2023-03-05T12:34:48;3.08;;;1.80;;
16403;SDS011;8311;50.158;8.642;2023-03-05T12:44:34;4.85;;;1.52;;
16403;SDS011;8311;50.158;8.642;2023-03-05T12:47:30;4.38;;;1.88;;
16403;SDS011;8311;50.158;8.642;2023-03-05T12:53:39;4.35;;;1.85;;
16403;SDS011;8311;50.158;8.642;2023-03-05T12:56:32;5.82;;;2.17;;
16403;SDS011;8311;50.158;8.642;2023-03-05T12:59:29;3.08;;;1.88;;
16403;SDS011;8311;50.158;8.642;2023-03-05T13:02:31;3.38;;;1.83;;
16403;SDS011;8311;50.158;8.642;2023-03-05T13:05:28;2.67;;;1.70;;
16403;SDS011;8311;50.158;8.642;2023-03-05T13:08:25;3.45;;;2.03;;
16403;SDS011;8311;50.158;8.642;2023-03-05T13:11:21;3.28;;;1.70;;
16403;SDS011;8311;50.158;8.642;2023-03-05T13:14:25;2.85;;;1.70;;
16403;SDS011;8311;50.158;8.642;2023-03-05T13:17:26;3.95;;;1.65;;
16403;SDS011;8311;50.158;8.642;2023-03-05T13:20:31;3.17;;;1.90;;
16403;SDS011;8311;50.158;8.642;2023-03-05T13:23:29;6.05;;;1.95;;
16403;SDS011;8311;50.158;8.642;2023-03-05T13:26:24;3.15;;;1.60;;
16403;SDS011;8311;50.158;8.642;2023-03-05T13:29:19;3.72;;;1.73;;
16403;SDS011;8311;50.158;8.642;2023-03-05T13:32:18;4.75;;;2.08;;
16403;SDS011;8311;50.158;8.642;2023-03-05T13:35:17;7.60;;;2.83;;
16403;SDS011;8311;50.158;8.642;2023-03-05T13:38:20;4.88;;;2.35;;
16403;SDS011;8311;50.158;8.642;2023-03-05T13:41:19;4.25;;;2.13;;
16403;SDS011;8311;50.158;8.642;2023-03-05T13:44:16;4.50;;;2.05;;
16403;SDS011;8311;50.158;8.642;2023-03-05T13:47:14;8.93;;;2.35;;
16403;SDS011;8311;50.158;8.642;2023-03-05T13:50:21;6.82;;;2.63;;
16403;SDS011;8311;50.158;8.642;2023-03-05T13:53:16;11.85;;;3.17;;
16403;SDS011;8311;50.158;8.642;2023-03-05T13:56:14;19.73;;;3.90;;
16403;SDS011;8311;50.158;8.642;2023-03-05T13:59:16;9.80;;;3.15;;
16403;SDS011;8311;50.158;8.642;2023-03-05T14:02:14;10.05;;;3.20;;
16403;SDS011;8311;50.158;8.642;2023-03-05T14:05:12;16.50;;;3.30;;
16403;SDS011;8311;50.158;8.642;2023-03-05T14:08:12;9.45;;;3.70;;
16403;SDS011;8311;50.158;8.642;2023-03-05T14:11:11;11.50;;;3.33;;
16403;SDS011;8311;50.158;8.642;2023-03-05T14:14:06;17.38;;;3.40;;
16403;SDS011;8311;50.158;8.642;2023-03-05T14:17:21;10.93;;;3.25;;
16403;SDS011;8311;50.158;8.642;2023-03-05T14:20:23;9.48;;;3.45;;
16403;SDS011;8311;50.158;8.642;2023-03-05T14:23:23;8.93;;;3.10;;
16403;SDS011;8311;50.158;8.642;2023-03-05T14:26:25;10.73;;;3.00;;
16403;SDS011;8311;50.158;8.642;2023-03-05T14:29:22;8.93;;;3.25;;
16403;SDS011;8311;50.158;8.642;2023-03-05T14:32:18;9.00;;;3.08;;
16403;SDS011;8311;50.158;8.642;2023-03-05T14:35:19;5.72;;;2.33;;
16403;SDS011;8311;50.158;8.642;2023-03-05T14:38:15;10.07;;;3.58;;
16403;SDS011;8311;50.158;8.642;2023-03-05T14:41:19;8.40;;;2.58;;
16403;SDS011;8311;50.158;8.642;2023-03-05T14:44:21;14.45;;;3.53;;
16403;SDS011;8311;50.158;8.642;2023-03-05T14:47:16;9.27;;;2.97;;
16403;SDS011;8311;50.158;8.642;2023-03-05T14:50:13;7.47;;;2.55;;
16403;SDS011;8311;50.158;8.642;2023-03-05T14:53:09;11.40;;;3.38;;
16403;SDS011;8311;50.158;8.642;2023-03-05T14:56:09;9.93;;;2.88;;
16403;SDS011;8311;50.158;8.642;2023-03-05T14:59:09;10.88;;;3.22;;
16403;SDS011;8311;50.158;8.642;2023-03-05T15:02:02;7.47;;;2.20;;
16403;SDS011;8311;50.158;8.642;2023-03-05T15:04:55;9.43;;;3.45;;
16403;SDS011;8311;50.158;8.642;2023-03-05T15:07:50;10.88;;;3.05;;
16403;SDS011;8311;50.158;8.642;2023-03-05T15:10:44;11.07;;;3.55;;
16403;SDS011;8311;50.158;8.642;2023-03-05T15:13:37;10.93;;;2.78;;
16403;SDS011;8311;50.158;8.642;2023-03-05T15:16:31;7.80;;;2.50;;
16403;SDS011;8311;50.158;8.642;2023-03-05T15:19:26;7.85;;;2.97;;
16403;SDS011;8311;50.158;8.642;2023-03-05T15:22:20;7.70;;;3.15;;
16403;SDS011;8311;50.158;8.642;2023-03-05T15:25:14;9.60;;;2.97;;
16403;SDS011;8311;50.158;8.642;2023-03-05T15:28:08;7.15;;;2.80;;
16403;SDS011;8311;50.158;8.642;2023-03-05T15:31:02;9.35;;;2.92;;
16403;SDS011;8311;50.158;8.642;2023-03-05T15:33:56;9.82;;;2.60;;
16403;SDS011;8311;50.158;8.642;2023-03-05T15:36:50;9.68;;;2.85;;
16403;SDS011;8311;50.158;8.642;2023-03-05T15:39:44;9.48;;;2.22;;
16403;SDS011;8311;50.158;8.642;2023-03-05T15:42:38;9.10;;;2.47;;
16403;SDS011;8311;50.158;8.642;2023-03-05T15:45:31;11.25;;;2.88;;
16403;SDS011;8311;50.158;8.642;2023-03-05T15:48:25;8.57;;;2.45;;
16403;SDS011;8311;50.158;8.642;2023-03-05T15:51:19;10.18;;;2.92;;
16403;SDS011;8311;50.158;8.642;2023-03-05T15:54:13;11.75;;;2.65;;
16403;SDS011;8311;50.158;8.642;2023-03-05T15:57:07;5.80;;;2.72;;
16403;SDS011;8311;50.158;8.642;2023-03-05T16:00:02;14.00;;;3.55;;
16403;SDS011;8311;50.158;8.642;2023-03-05T16:02:58;7.35;;;2.80;;
16403;SDS011;8311;50.158;8.642;2023-03-05T16:05:51;5.03;;;2.60;;
16403;SDS011;8311;50.158;8.642;2023-03-05T16:08:45;5.18;;;2.63;;
16403;SDS011;8311;50.158;8.642;2023-03-05T16:11:39;4.88;;;2.38;;
16403;SDS011;8311;50.158;8.642;2023-03-05T16:14:38;5.43;;;2.03;;
16403;SDS011;8311;50.158;8.642;2023-03-05T16:17:34;5.20;;;2.20;;
16403;SDS011;8311;50.158;8.642;2023-03-05T16:20:27;6.30;;;2.30;;
16403;SDS011;8311;50.158;8.642;2023-03-05T16:23:20;5.55;;;1.73;;
16403;SDS011;8311;50.158;8.642;2023-03-05T16:26:13;6.15;;;2.80;;
16403;SDS011;8311;50.158;8.642;2023-03-05T16:29:08;5.60;;;2.33;;
16403;SDS011;8311;50.158;8.642;2023-03-05T16:32:03;5.15;;;1.88;;
16403;SDS011;8311;50.158;8.642;2023-03-05T16:34:59;3.63;;;1.88;;
16403;SDS011;8311;50.158;8.642;2023-03-05T16:37:53;4.13;;;1.70;;
16403;SDS011;8311;50.158;8.642;2023-03-05T16:40:46;3.72;;;1.63;;
16403;SDS011;8311;50.158;8.642;2023-03-05T16:43:58;2.58;;;1.38;;
16403;SDS011;8311;50.158;8.642;2023-03-05T16:46:52;2.70;;;1.58;;
16403;SDS011;8311;50.158;8.642;2023-03-05T16:49:47;5.32;;;1.85;;
16403;SDS011;8311;50.158;8.642;2023-03-05T16:52:42;3.08;;;1.60;;
16403;SDS011;8311;50.158;8.642;2023-03-05T16:55:36;3.83;;;1.80;;
16403;SDS011;8311;50.158;8.642;2023-03-05T16:58:30;2.58;;;1.30;;
16403;SDS011;8311;50.158;8.642;2023-03-05T17:01:24;5.60;;;2.00;;
16403;SDS011;8311;50.158;8.642;2023-03-05T17:04:21;4.38;;;1.77;;
16403;SDS011;8311;50.158;8.642;2023-03-05T17:07:14;5.07;;;1.70;;
16403;SDS011;8311;50.158;8.642;2023-03-05T17:10:09;2.35;;;1.50;;
16403;SDS011;8311;50.158;8.642;2023-03-05T17:13:03;4.30;;;1.42;;
16403;SDS011;8311;50.158;8.642;2023-03-05T17:15:57;4.25;;;1.85;;
16403;SDS011;8311;50.158;8.642;2023-03-05T17:18:49;3.40;;;1.85;;
16403;SDS011;8311;50.158;8.642;2023-03-05T17:21:43;3.50;;;1.75;;
16403;SDS011;8311;50.158;8.642;2023-03-05T17:24:36;3.03;;;1.40;;
16403;SDS011;8311;50.158;8.642;2023-03-05T17:27:35;2.97;;;1.50;;
16403;SDS011;8311;50.158;8.642;2023-03-05T17:30:29;3.92;;;1.98;;
16403;SDS011;8311;50.158;8.642;2023-03-05T17:33:24;3.08;;;1.50;;
16403;SDS011;8311;50.158;8.642;2023-03-05T17:36:17;3.55;;;1.63;;
16403;SDS011;8311;50.158;8.642;2023-03-05T17:39:12;2.42;;;1.25;;
16403;SDS011;8311;50.158;8.642;2023-03-05T17:42:04;2.63;;;1.52;;
16403;SDS011;8311;50.158;8.642;2023-03-05T17:44:59;2.65;;;1.55;;
16403;SDS011;8311;50.158;8.642;2023-03-05T17:47:53;3.00;;;1.55;;
16403;SDS011;8311;50.158;8.642;2023-03-05T17:50:48;3.58;;;1.70;;
16403;SDS011;8311;50.158;8.642;2023-03-05T17:53:42;3.63;;;1.65;;
16403;SDS011;8311;50.158;8.642;2023-03-05T17:56:35;3.90;;;1.52;;
16403;SDS011;8311;50.158;8.642;2023-03-05T17:59:29;2.92;;;1.67;;
16403;SDS011;8311;50.158;8.642;2023-03-05T18:02:23;3.20;;;1.50;;
16403;SDS011;8311;50.158;8.642;2023-03-05T18:05:17;2.53;;;1.25;;
16403;SDS011;8311;50.158;8.642;2023-03-05T18:08:11;1.73;;;1.30;;
16403;SDS011;8311;50.158;8.642;2023-03-05T18:11:05;2.30;;;1.17;;